Time;durP1;ratioP1;P1;durP2;ratioP2;P2;SDS_P1;SDS_P2;PMS_P1;PMS_P2;Temp;Humidity;BMP_temperature;BMP_pressure;BME280_temperature;BME280_humidity;BME280_pressure;Samples;Min_cycle;Max_cycle;Signal;HPM_P1;HPM_P2
2022/05/04 00:00:24;;;;;;;0.10;0.10;;;11.50;99.90;304.20;52956.00;;;;5073688;28;20201;-71
2022/05/04 00:02:52;;;;;;;0.10;0.10;;;11.50;99.90;304.10;52969.00;;;;5071362;28;20198;-71
2022/05/04 00:05:20;;;;;;;0.00;0.00;;;11.40;99.90;304.10;52964.00;;;;5066743;28;20213;-71
2022/05/04 00:07:49;;;;;;;0.10;0.10;;;11.50;99.90;304.10;52963.00;;;;5070403;28;20214;-71
2022/05/04 00:10:17;;;;;;;0.00;0.00;;;11.50;99.90;303.90;52976.00;;;;5064230;28;20182;-71
2022/05/04 00:12:45;;;;;;;0.10;0.10;;;11.40;99.90;303.80;52985.00;;;;5067751;28;20270;-71
2022/05/04 00:15:13;;;;;;;0.10;0.10;;;11.30;99.90;303.60;52998.00;;;;5067222;28;20217;-71
2022/05/04 00:17:41;;;;;;;0.00;0.00;;;11.20;99.90;303.40;53021.00;;;;5071346;28;20205;-71
2022/05/04 00:20:10;;;;;;;0.10;0.10;;;11.10;99.90;303.20;53032.00;;;;5071242;28;20189;-70
2022/05/04 00:22:38;;;;;;;0.10;0.10;;;11.00;99.90;303.20;53037.00;;;;5070459;28;20612;-70
2022/05/04 00:25:09;;;;;;;0.10;0.10;;;11.00;99.90;303.20;53034.00;;;;5052636;28;20210;-70
2022/05/04 00:27:38;;;;;;;0.10;0.10;;;11.00;99.90;303.20;53032.00;;;;5050516;28;20218;-70
2022/05/04 00:30:07;;;;;;;0.10;0.10;;;11.10;99.90;303.30;53026.00;;;;5053489;28;20200;-71
2022/05/04 00:32:36;;;;;;;0.10;0.10;;;11.10;99.90;303.10;53041.00;;;;5074332;28;20568;-72
2022/05/04 00:35:05;;;;;;;0.10;0.10;;;10.90;99.90;303.00;53052.00;;;;5072951;28;20267;-71
2022/05/04 00:37:33;;;;;;;0.10;0.10;;;10.80;99.90;302.90;53056.00;;;;5068499;28;20187;-70
2022/05/04 00:40:01;;;;;;;0.10;0.10;;;10.80;99.90;302.60;53083.00;;;;5052294;28;20194;-70
2022/05/04 00:42:31;;;;;;;0.10;0.10;;;10.60;99.90;302.50;53090.00;;;;5063284;28;20208;-71
2022/05/04 00:44:59;;;;;;;0.10;0.10;;;10.60;99.90;302.60;53091.00;;;;5077636;28;20209;-71
2022/05/04 00:47:27;;;;;;;0.10;0.10;;;10.60;99.90;302.60;53084.00;;;;5055373;28;20220;-71
2022/05/04 00:49:55;;;;;;;0.10;0.10;;;10.70;99.90;302.70;53074.00;;;;5053076;28;20202;-71
2022/05/04 00:52:24;;;;;;;0.10;0.10;;;10.80;99.90;303.00;53054.00;;;;5072893;28;20193;-71
2022/05/04 00:54:53;;;;;;;0.10;0.10;;;11.00;99.90;303.10;53045.00;;;;5077213;28;20232;-72
2022/05/04 00:58:54;;;;;;;0.10;0.10;;;11.00;99.90;303.00;53051.00;;;;5060406;28;20198;-72
2022/05/04 01:00:12;;;;;;;0.10;0.10;;;11.00;99.90;302.90;53070.00;;;;5050448;28;20248;-71
2022/05/04 01:02:42;;;;;;;0.10;0.10;;;10.90;99.90;302.90;53057.00;;;;5068727;28;20190;-72
2022/05/04 01:05:11;;;;;;;0.10;0.10;;;10.90;99.90;303.10;53050.00;;;;5056454;28;20707;-72
2022/05/04 01:07:42;;;;;;;0.10;0.10;;;11.00;99.90;302.60;53076.00;;;;5050769;28;20229;-71
2022/05/04 01:10:13;;;;;;;0.10;0.10;;;10.80;99.90;302.40;53101.00;;;;5067069;28;20244;-71
2022/05/04 01:12:47;;;;;;;0.10;0.10;;;10.60;99.90;302.20;53111.00;;;;5086428;28;20204;-71
2022/05/04 01:15:18;;;;;;;0.10;0.10;;;10.60;99.90;302.30;53110.00;;;;5094339;28;20290;-71
2022/05/04 01:17:48;;;;;;;0.10;0.10;;;10.60;99.90;302.40;53101.00;;;;5090641;28;20288;-71
2022/05/04 01:20:17;;;;;;;0.10;0.10;;;10.70;99.90;302.30;53106.00;;;;5055796;28;20189;-71
2022/05/04 01:22:46;;;;;;;0.10;0.10;;;10.60;99.90;301.80;53150.00;;;;5073964;28;20193;-72
2022/05/04 01:25:14;;;;;;;0.08;0.08;;;10.20;99.90;301.30;53183.00;;;;5068289;28;20279;-71
2022/05/04 01:27:42;;;;;;;0.10;0.10;;;9.90;99.90;301.10;53202.00;;;;5069989;28;20255;-71
2022/05/04 01:30:11;;;;;;;0.10;0.10;;;9.80;99.90;300.70;53225.00;;;;5066437;28;20702;-71
2022/05/04 01:32:39;;;;;;;0.10;0.10;;;9.70;99.90;300.80;53231.00;;;;5059769;28;20207;-71
2022/05/04 01:35:08;;;;;;;0.10;0.10;;;9.70;99.90;300.90;53223.00;;;;5069701;28;20301;-72
2022/05/04 01:37:37;;;;;;;0.00;0.00;;;9.70;99.90;301.00;53216.00;;;;5069828;28;20194;-71
2022/05/04 01:40:08;;;;;;;0.10;0.10;;;9.80;99.90;301.20;53205.00;;;;5064593;28;20190;-71
2022/05/04 01:42:36;;;;;;;0.10;0.10;;;9.90;99.90;301.40;53193.00;;;;5078264;28;20557;-72
2022/05/04 01:45:08;;;;;;;0.10;0.10;;;10.10;99.90;301.30;53199.00;;;;5087387;28;20243;-72
2022/05/04 01:47:37;;;;;;;0.10;0.10;;;10.00;99.90;301.10;53187.00;;;;5089676;28;20276;-71
2022/05/04 01:50:06;;;;;;;0.10;0.10;;;10.10;99.90;301.60;53176.00;;;;5070333;28;20206;-71
2022/05/04 01:52:34;;;;;;;0.05;0.05;;;10.10;99.90;301.80;53153.00;;;;5073898;28;20193;-72
2022/05/04 01:55:03;;;;;;;0.10;0.10;;;10.30;99.90;302.00;53136.00;;;;5073736;28;20213;-72
2022/05/04 01:57:32;;;;;;;0.10;0.10;;;10.50;99.90;301.70;53164.00;;;;5053223;28;20194;-71
2022/05/04 02:00:01;;;;;;;0.10;0.10;;;10.30;99.90;301.50;53183.00;;;;5053393;28;20651;-71
2022/05/04 02:02:29;;;;;;;0.10;0.10;;;10.10;99.90;301.40;53191.00;;;;5077602;28;20250;-71
2022/05/04 02:04:58;;;;;;;0.10;0.10;;;10.10;99.90;301.40;53188.00;;;;5079077;28;20210;-71
2022/05/04 02:07:27;;;;;;;0.10;0.10;;;10.10;99.90;300.90;53221.00;;;;5073150;28;20228;-71
2022/05/04 02:09:57;;;;;;;0.10;0.10;;;9.80;99.90;300.90;53226.00;;;;5075632;28;20186;-71
2022/05/04 02:12:27;;;;;;;0.10;0.10;;;9.80;99.90;300.80;53232.00;;;;5071119;28;20243;-71
2022/05/04 02:14:57;;;;;;;0.10;0.10;;;9.80;99.90;300.60;53258.00;;;;5091694;28;20334;-72
2022/05/04 02:17:25;;;;;;;0.10;0.10;;;9.70;99.90;300.50;53258.00;;;;5093921;28;20200;-72
2022/05/04 02:19:53;;;;;;;0.10;0.10;;;9.60;99.90;300.30;53278.00;;;;5092780;28;20201;-71
2022/05/04 02:22:22;;;;;;;0.10;0.10;;;9.40;99.90;300.00;53308.00;;;;5070439;28;20589;-71
2022/05/04 02:24:50;;;;;;;0.10;0.10;;;9.20;99.90;299.90;53316.00;;;;5073625;28;20225;-71
2022/05/04 02:27:18;;;;;;;0.10;0.10;;;9.20;99.90;300.00;53305.00;;;;5072778;28;20615;-72
2022/05/04 02:29:46;;;;;;;0.10;0.10;;;9.30;99.90;300.00;53307.00;;;;5066995;28;20225;-72
2022/05/04 02:32:15;;;;;;;0.10;0.10;;;9.30;99.90;300.10;53296.00;;;;5055057;28;20721;-72
2022/05/04 02:40:12;;;;;;;0.10;0.10;;;9.50;99.90;300.50;53253.00;;;;5075340;28;20232;-72
2022/05/04 02:42:40;;;;;;;0.10;0.10;;;9.60;99.90;300.80;53231.00;;;;5070301;28;20205;-72
2022/05/04 02:45:10;;;;;;;0.10;0.10;;;9.70;99.90;300.60;53250.00;;;;5070370;28;20225;-72
2022/05/04 02:47:40;;;;;;;0.10;0.10;;;9.50;99.90;300.60;53254.00;;;;5072564;28;20206;-72
2022/05/04 02:50:15;;;;;;;0.10;0.10;;;9.50;99.90;300.50;53265.00;;;;5064156;28;20233;-72
2022/05/04 02:52:43;;;;;;;0.10;0.10;;;9.60;99.90;300.40;53268.00;;;;5080764;28;20279;-72
2022/05/04 02:55:11;;;;;;;0.10;0.10;;;9.60;99.90;300.50;53270.00;;;;5076392;28;20224;-72
2022/05/04 02:57:39;;;;;;;0.10;0.10;;;9.70;99.90;300.50;53268.00;;;;5061920;28;20213;-72
2022/05/04 03:00:09;;;;;;;0.10;0.10;;;9.70;99.90;300.40;53273.00;;;;5065468;28;20224;-72
2022/05/04 03:02:36;;;;;;;0.10;0.10;;;9.70;99.90;300.40;53274.00;;;;5074618;28;20205;-71
2022/05/04 03:05:08;;;;;;;0.10;0.10;;;9.70;99.90;300.40;53273.00;;;;5070854;28;20220;-71
2022/05/04 03:07:36;;;;;;;0.10;0.10;;;9.70;99.90;300.20;53292.00;;;;5071893;28;20604;-72
2022/05/04 03:10:06;;;;;;;0.10;0.10;;;9.60;99.90;300.10;53294.00;;;;5063173;28;20233;-72
2022/05/04 03:12:34;;;;;;;0.10;0.10;;;9.50;99.90;300.20;53285.00;;;;5058838;28;20197;-72
2022/05/04 03:15:03;;;;;;;0.10;0.10;;;9.50;99.90;300.00;53304.00;;;;5073088;28;20222;-72
2022/05/04 03:17:31;;;;;;;0.10;0.10;;;9.40;99.90;299.60;53340.00;;;;5071508;28;20540;-72
2022/05/04 03:19:59;;;;;;;0.10;0.10;;;9.00;99.90;299.50;53349.00;;;;5071469;28;20670;-72
2022/05/04 03:22:29;;;;;;;0.10;0.10;;;9.00;99.90;299.40;53357.00;;;;5071084;28;20186;-70
2022/05/04 03:24:57;;;;;;;0.10;0.10;;;9.00;99.90;299.40;53359.00;;;;5072576;28;20222;-71
2022/05/04 03:27:25;;;;;;;0.10;0.10;;;8.90;99.90;299.10;53380.00;;;;5066628;28;20198;-71
2022/05/04 03:29:53;;;;;;;0.10;0.10;;;8.80;99.90;298.90;53399.00;;;;5069868;28;20760;-70
2022/05/04 03:32:22;;;;;;;0.10;0.10;;;8.70;99.90;298.60;53424.00;;;;5070561;28;20239;-71
2022/05/04 03:34:50;;;;;;;0.10;0.10;;;8.50;99.90;298.60;53427.00;;;;5073445;28;20732;-71
2022/05/04 03:37:18;;;;;;;0.10;0.10;;;8.50;99.90;298.50;53439.00;;;;5065361;28;20193;-71
2022/05/04 03:39:47;;;;;;;0.10;0.10;;;8.40;99.90;298.30;53456.00;;;;5062415;28;20202;-71
2022/05/04 03:42:16;;;;;;;0.10;0.10;;;8.40;99.90;298.40;53448.00;;;;5085780;28;20197;-71
2022/05/04 03:44:44;;;;;;;0.10;0.10;;;8.50;99.90;298.60;53426.00;;;;5078467;28;20263;-71
2022/05/04 03:47:12;;;;;;;0.10;0.10;;;8.60;99.90;299.00;53399.00;;;;5067313;28;20186;-70
2022/05/04 03:49:40;;;;;;;0.10;0.10;;;8.70;99.90;299.10;53382.00;;;;5066355;28;20225;-71
2022/05/04 03:52:09;;;;;;;0.10;0.10;;;8.70;99.90;299.10;53388.00;;;;5068389;28;20643;-70
2022/05/04 03:54:37;;;;;;;0.10;0.10;;;8.70;99.90;298.80;53410.00;;;;5068810;28;20221;-70
2022/05/04 03:57:08;;;;;;;0.10;0.10;;;8.50;99.90;298.60;53410.00;;;;5068805;28;20190;-70
2022/05/04 03:59:36;;;;;;;0.10;0.10;;;8.60;99.90;298.90;53403.00;;;;5068698;28;20201;-70
2022/05/04 04:02:05;;;;;;;0.10;0.10;;;8.60;99.90;299.00;53393.00;;;;5070586;28;20686;-70
2022/05/04 04:04:33;;;;;;;0.10;0.10;;;8.70;99.90;299.00;53398.00;;;;5073061;28;20247;-70
2022/05/04 04:07:01;;;;;;;0.10;0.10;;;8.70;99.90;299.00;53393.00;;;;5069121;28;20194;-70
2022/05/04 04:09:29;;;;;;;0.10;0.10;;;8.70;99.90;298.90;53406.00;;;;5062724;28;20210;-70
2022/05/04 04:11:57;;;;;;;0.10;0.10;;;8.60;99.90;298.80;53409.00;;;;5068956;28;20717;-70
2022/05/04 04:14:26;;;;;;;0.10;0.10;;;8.60;99.90;298.90;53403.00;;;;5071268;28;20218;-70
2022/05/04 04:16:54;;;;;;;0.10;0.10;;;8.70;99.90;299.10;53392.00;;;;5071211;28;20204;-70
2022/05/04 04:19:22;;;;;;;0.10;0.10;;;8.80;99.90;299.10;53398.00;;;;5071642;28;20683;-70
2022/05/04 04:21:52;;;;;;;0.10;0.10;;;8.80;99.90;299.00;53400.00;;;;5071454;28;20201;-70
2022/05/04 04:24:22;;;;;;;0.10;0.10;;;8.80;99.90;298.90;53408.00;;;;5063487;28;20221;-70
2022/05/04 04:26:51;;;;;;;0.10;0.10;;;8.80;99.90;298.60;53432.00;;;;5072048;28;20231;-70
2022/05/04 04:29:20;;;;;;;0.10;0.10;;;8.50;99.90;298.40;53447.00;;;;5065844;28;20229;-70
2022/05/04 04:31:49;;;;;;;0.10;0.10;;;8.40;99.90;298.30;53453.00;;;;5069812;28;20197;-70
2022/05/04 04:34:17;;;;;;;0.10;0.10;;;8.30;99.90;297.90;53488.00;;;;5071232;28;20308;-70
2022/05/04 04:36:45;;;;;;;0.10;0.10;;;8.10;99.90;297.80;53501.00;;;;5074115;28;20286;-70
2022/05/04 04:39:13;;;;;;;0.10;0.10;;;8.00;99.90;297.60;53515.00;;;;5069842;28;20217;-70
2022/05/04 04:41:41;;;;;;;0.10;0.10;;;7.90;99.90;297.80;53502.00;;;;5071115;28;20201;-70
2022/05/04 04:44:09;;;;;;;0.10;0.10;;;8.00;99.90;297.80;53503.00;;;;5060825;28;20194;-71
2022/05/04 04:46:37;;;;;;;0.10;0.10;;;8.00;99.90;298.00;53482.00;;;;5055471;28;20191;-71
2022/05/04 04:49:07;;;;;;;0.10;0.10;;;8.20;99.90;298.10;53469.00;;;;5067297;28;20252;-70
2022/05/04 04:51:35;;;;;;;0.10;0.10;;;8.30;99.90;298.30;53456.00;;;;5071799;28;20243;-70
2022/05/04 04:54:03;;;;;;;0.05;0.05;;;8.40;99.90;298.70;53431.00;;;;5064451;28;20233;-70
2022/05/04 04:56:31;;;;;;;0.10;0.10;;;8.60;99.90;298.70;53423.00;;;;5058644;28;20230;-70
2022/05/04 04:58:59;;;;;;;0.10;0.10;;;8.60;99.90;298.90;53415.00;;;;5066801;28;20190;-70
2022/05/04 05:01:27;;;;;;;0.10;0.10;;;8.70;99.90;299.00;53399.00;;;;5051080;28;20600;-70
2022/05/04 05:03:55;;;;;;;0.10;0.10;;;8.80;99.90;299.10;53387.00;;;;5060193;28;20194;-69
2022/05/04 05:06:25;;;;;;;0.10;0.10;;;8.90;99.90;299.30;53373.00;;;;5054975;28;20195;-69
2022/05/04 05:08:53;;;;;;;0.10;0.10;;;9.00;99.90;299.70;53347.00;;;;5053611;28;20660;-70
2022/05/04 05:11:22;;;;;;;0.10;0.10;;;9.10;99.90;299.90;53327.00;;;;5054019;28;20218;-70
2022/05/04 05:16:48;;;;;;;0.10;0.10;;;9.30;99.90;300.10;53303.00;;;;5024749;28;20212;-71
2022/05/04 05:19:16;;;;;;;0.10;0.10;;;9.40;99.90;299.90;53317.00;;;;5050228;28;20210;-70
2022/05/04 05:21:45;;;;;;;0.10;0.10;;;9.30;99.90;300.10;53297.00;;;;5068446;28;20202;-70
2022/05/04 05:24:13;;;;;;;0.10;0.10;;;9.40;99.90;300.50;53261.00;;;;5074352;28;20217;-70
2022/05/04 05:26:41;;;;;;;0.05;0.05;;;9.50;99.90;300.80;53247.00;;;;5054924;28;20217;-70
2022/05/04 05:29:09;;;;;;;0.10;0.10;;;9.60;99.90;300.60;53264.00;;;;5064947;28;20198;-70
2022/05/04 05:31:38;;;;;;;0.10;0.10;;;9.60;99.90;300.50;53271.00;;;;5076957;28;20253;-70
2022/05/04 05:34:06;;;;;;;0.10;0.10;;;9.60;99.90;300.80;53248.00;;;;5075474;28;20186;-70
2022/05/04 05:36:34;;;;;;;0.10;0.10;;;9.70;99.90;300.90;53236.00;;;;5074646;28;20186;-70
2022/05/04 05:39:03;;;;;;;0.10;0.10;;;9.70;99.90;301.10;53221.00;;;;5075156;28;20557;-70
2022/05/04 05:41:31;;;;;;;0.10;0.10;;;9.80;99.90;301.40;53192.00;;;;5074646;28;20667;-70
2022/05/04 05:44:00;;;;;;;0.10;0.10;;;9.90;99.90;301.60;53174.00;;;;5074765;28;20197;-70
2022/05/04 05:46:29;;;;;;;0.10;0.10;;;10.00;99.90;301.70;53165.00;;;;5075356;28;20197;-70
2022/05/04 05:48:57;;;;;;;0.10;0.10;;;10.10;99.90;301.80;53151.00;;;;5057057;28;20202;-70
2022/05/04 05:51:25;;;;;;;0.10;0.10;;;10.10;99.90;301.90;53144.00;;;;5054195;28;20218;-70
2022/05/04 05:53:53;;;;;;;0.10;0.10;;;10.20;99.90;302.00;53128.00;;;;5060041;28;20204;-70
2022/05/04 05:56:22;;;;;;;0.10;0.10;;;10.30;99.90;302.20;53120.00;;;;5073882;28;20552;-70
2022/05/04 05:58:50;;;;;;;0.10;0.10;;;10.30;99.90;302.40;53101.00;;;;5067777;28;20566;-70
2022/05/04 06:01:18;;;;;;;0.10;0.10;;;10.50;99.90;302.40;53106.00;;;;5074017;28;20206;-70
2022/05/04 06:03:46;;;;;;;0.00;0.00;;;10.40;99.90;302.50;53099.00;;;;5074294;28;20273;-70
2022/05/04 06:06:14;;;;;;;0.10;0.10;;;10.60;99.90;302.70;53079.00;;;;5066630;28;20687;-70
2022/05/04 06:08:42;;;;;;;0.10;0.10;;;10.70;99.90;302.80;53075.00;;;;5054615;28;20190;-70
2022/05/04 06:11:11;;;;;;;0.10;0.10;;;10.70;99.90;302.90;53070.00;;;;5056782;28;20317;-70
2022/05/04 06:13:40;;;;;;;0.00;0.00;;;10.80;99.90;303.20;53039.00;;;;5056024;28;20183;-70
2022/05/04 06:16:08;;;;;;;0.10;0.10;;;10.90;99.90;303.40;53027.00;;;;5054008;28;20285;-70
2022/05/04 06:18:36;;;;;;;0.10;0.10;;;11.00;99.90;303.60;53005.00;;;;5053954;28;20281;-70
2022/05/04 06:21:04;;;;;;;0.10;0.10;;;11.10;99.90;303.80;52990.00;;;;5054167;28;20198;-70
2022/05/04 06:23:32;;;;;;;0.10;0.10;;;11.20;99.90;304.10;52967.00;;;;5053725;28;20735;-71
2022/05/04 06:26:00;;;;;;;0.10;0.10;;;11.40;99.90;304.40;52949.00;;;;5053085;28;20214;-70
2022/05/04 06:28:28;;;;;;;0.10;0.10;;;11.50;99.90;304.50;52937.00;;;;5053538;28;20253;-70
2022/05/04 06:36:29;;;;;;;0.10;0.10;;;11.70;99.90;304.80;52908.00;;;;5053448;28;20255;-70
2022/05/04 06:38:58;;;;;;;0.10;0.10;;;11.80;99.90;305.10;52880.00;;;;5054007;28;20273;-70
2022/05/04 06:41:27;;;;;;;0.10;0.10;;;11.90;99.90;305.50;52852.00;;;;5053787;28;20206;-70
2022/05/04 06:43:55;;;;;;;0.10;0.10;;;12.10;99.90;306.00;52809.00;;;;5054455;28;20664;-70
2022/05/04 06:46:24;;;;;;;0.10;0.10;;;12.30;99.90;306.40;52775.00;;;;5054035;28;20717;-70
2022/05/04 06:48:52;;;;;;;0.10;0.10;;;12.60;99.90;306.90;52743.00;;;;5055447;28;20245;-70
2022/05/04 06:51:20;;;;;;;0.10;0.10;;;12.80;99.90;307.20;52712.00;;;;5057977;28;20245;-70
2022/05/04 06:53:48;;;;;;;0.00;0.00;;;13.00;99.90;307.30;52706.00;;;;5056640;28;20191;-72
2022/05/04 06:56:36;;;;;;;0.10;0.10;;;13.10;99.90;307.60;52689.00;;;;5054370;28;20222;-70
2022/05/04 06:59:04;;;;;;;0.10;0.10;;;13.20;99.90;307.90;52669.00;;;;5053232;28;20524;-70
2022/05/04 07:01:33;;;;;;;0.10;0.10;;;13.30;99.90;308.10;52647.00;;;;5053009;28;20244;-71
2022/05/04 07:04:01;;;;;;;0.00;0.00;;;13.50;99.90;308.00;52634.00;;;;5066825;28;20663;-70
2022/05/04 07:06:29;;;;;;;0.10;0.10;;;13.50;99.90;308.20;52633.00;;;;5067202;28;20742;-70
2022/05/04 07:08:57;;;;;;;0.10;0.10;;;13.60;99.90;307.80;52665.00;;;;5052968;28;20186;-70
2022/05/04 07:11:25;;;;;;;0.10;0.10;;;13.40;99.90;307.60;52685.00;;;;5063338;28;20714;-70
2022/05/04 07:13:53;;;;;;;0.10;0.10;;;13.40;99.90;307.60;52681.00;;;;5072455;28;20343;-70
2022/05/04 07:16:21;;;;;;;0.10;0.10;;;13.40;99.90;307.80;52667.00;;;;5071406;28;20189;-70
2022/05/04 07:18:50;;;;;;;0.10;0.10;;;13.40;99.90;308.00;52649.00;;;;5072725;28;20194;-70
2022/05/04 07:21:19;;;;;;;0.10;0.10;;;13.50;99.90;308.20;52628.00;;;;5072751;28;20185;-71
2022/05/04 07:23:46;;;;;;;0.10;0.10;;;13.60;99.90;308.50;52605.00;;;;5073989;28;20299;-70
2022/05/04 07:26:18;;;;;;;0.10;0.10;;;13.70;99.90;308.80;52581.00;;;;5072970;28;20626;-71
2022/05/04 07:28:46;;;;;;;0.10;0.10;;;13.90;99.90;309.10;52560.00;;;;5073296;28;20510;-70
2022/05/04 07:31:15;;;;;;;0.10;0.10;;;14.00;99.90;309.50;52535.00;;;;5071497;28;20312;-70
2022/05/04 07:33:44;;;;;;;0.00;0.00;;;14.10;99.90;309.50;52525.00;;;;5072527;28;20694;-70
2022/05/04 07:36:13;;;;;;;0.10;0.10;;;14.20;99.90;309.90;52499.00;;;;5071104;28;20500;-70
2022/05/04 07:38:41;;;;;;;0.10;0.10;;;14.40;99.90;310.20;52473.00;;;;5072453;28;20232;-70
2022/05/04 07:43:54;;;;;;;0.10;0.10;;;14.70;99.90;311.00;52413.00;;;;5072622;28;20205;-70
2022/05/04 07:46:22;;;;;;;0.00;0.00;;;14.90;99.90;311.10;52403.00;;;;5072038;28;20190;-70
2022/05/04 07:48:50;;;;;;;0.10;0.10;;;15.00;99.90;311.40;52376.00;;;;5072034;28;20190;-70
2022/05/04 07:51:20;;;;;;;0.00;0.00;;;15.20;99.90;311.60;52364.00;;;;5072035;28;20205;-70
2022/05/04 07:53:48;;;;;;;0.10;0.10;;;15.30;99.90;311.10;52402.00;;;;5072111;28;20606;-71
2022/05/04 07:56:16;;;;;;;0.10;0.10;;;15.20;99.90;311.20;52396.00;;;;5071844;28;20206;-70
2022/05/04 07:58:44;;;;;;;0.10;0.10;;;15.10;99.90;311.60;52361.00;;;;5071990;28;20663;-70
2022/05/04 08:06:45;;;;;;;0.00;0.00;;;15.60;99.90;312.70;52279.00;;;;5072398;28;20602;-70
2022/05/04 08:09:13;;;;;;;0.10;0.10;;;15.80;99.90;313.30;52230.00;;;;5074134;28;20219;-70
2022/05/04 08:11:41;;;;;;;0.00;0.00;;;16.10;99.90;313.90;52183.00;;;;5072838;28;20225;-70
2022/05/04 08:14:10;;;;;;;0.00;0.00;;;16.40;99.90;314.40;52142.00;;;;5072086;28;20663;-70
2022/05/04 08:16:39;;;;;;;0.08;0.08;;;16.60;99.90;314.90;51910.00;;;;5071852;28;20194;-69
2022/05/04 08:19:07;;;;;;;0.10;0.10;;;16.80;99.90;315.10;51893.00;;;;5071953;28;20190;-72
2022/05/04 08:21:37;;;;;;;0.05;0.05;;;17.00;99.90;315.50;51864.00;;;;5072412;28;20682;-70
2022/05/04 08:24:08;;;;;;;0.00;0.00;;;17.20;99.90;316.00;51830.00;;;;5072210;28;20220;-71
2022/05/04 08:26:43;;;;;;;0.00;0.00;;;17.40;99.90;316.10;51824.00;;;;5071378;28;20204;-70
2022/05/04 08:29:12;;;;;;;0.00;0.00;;;17.60;99.90;316.60;51782.00;;;;5071604;28;20239;-70
2022/05/04 08:31:40;;;;;;;0.00;0.00;;;17.80;99.90;316.70;51767.00;;;;5071725;28;20627;-70
2022/05/04 08:34:08;;;;;;;0.00;0.00;;;17.90;99.90;317.10;51744.00;;;;5071480;28;20186;-70
2022/05/04 08:36:37;;;;;;;0.00;0.00;;;18.10;99.90;317.40;51724.00;;;;5070601;28;20220;-71
2022/05/04 08:39:09;;;;;;;0.00;0.00;;;18.20;99.90;317.60;51699.00;;;;5060210;28;20201;-70
2022/05/04 08:41:41;;;;;;;0.00;0.00;;;18.30;99.90;317.80;51694.00;;;;5051599;28;20232;-70
2022/05/04 08:44:11;;;;;;;0.00;0.00;;;18.40;99.90;318.20;51661.00;;;;5051439;28;20213;-71
2022/05/04 08:46:41;;;;;;;0.00;0.00;;;18.60;99.90;318.50;51635.00;;;;5068923;28;20201;-71
2022/05/04 08:49:12;;;;;;;0.00;0.00;;;18.80;99.90;318.90;51603.00;;;;5075093;28;20655;-71
2022/05/04 08:51:41;;;;;;;0.00;0.00;;;19.00;99.90;319.40;51572.00;;;;5073511;28;20217;-71
2022/05/04 08:54:10;;;;;;;0.00;0.00;;;19.20;99.90;319.60;51558.00;;;;5066019;28;20202;-70
2022/05/04 08:56:39;;;;;;;0.00;0.00;;;19.30;99.90;319.60;51554.00;;;;5056742;28;20194;-70
2022/05/04 08:59:08;;;;;;;0.00;0.00;;;19.40;99.90;319.90;51531.00;;;;5055133;28;20194;-72
2022/05/04 09:01:39;;;;;;;0.00;0.00;;;19.50;99.90;319.80;51535.00;;;;5085782;28;20223;-70
2022/05/04 09:04:09;;;;;;;0.00;0.00;;;19.50;99.90;320.20;51506.00;;;;5075161;28;20197;-72
2022/05/04 09:06:44;;;;;;;0.00;0.00;;;19.70;99.90;320.40;51490.00;;;;5075252;28;20228;-70
2022/05/04 09:09:13;;;;;;;0.03;0.03;;;19.80;99.90;320.70;51503.00;;;;5075280;28;20239;-72
2022/05/04 09:11:44;;;;;;;0.00;0.00;;;19.90;99.90;321.10;51434.00;;;;5075463;28;20717;-70
2022/05/04 09:14:15;;;;;;;0.00;0.00;;;20.10;99.90;321.20;51429.00;;;;5075311;28;20217;-70
2022/05/04 09:16:43;;;;;;;0.00;0.00;;;20.20;99.90;321.30;51421.00;;;;5075456;28;20364;-71
2022/05/04 09:19:15;;;;;;;0.10;0.10;;;20.30;99.90;321.80;51387.00;;;;5075109;28;20196;-72
2022/05/04 09:21:45;;;;;;;0.00;0.00;;;20.40;99.90;321.90;51380.00;;;;5075240;28;20476;-71
2022/05/04 09:24:16;;;;;;;0.00;0.00;;;20.50;99.90;322.10;51361.00;;;;5074732;28;20224;-71
2022/05/04 09:26:46;;;;;;;0.00;0.00;;;20.60;99.90;322.50;51338.00;;;;5074872;28;20648;-71
2022/05/04 09:29:16;;;;;;;0.00;0.00;;;20.70;99.90;322.30;51347.00;;;;5075479;28;20247;-71
2022/05/04 09:31:48;;;;;;;0.00;0.00;;;20.80;99.90;322.40;51343.00;;;;5075591;28;20196;-71
2022/05/04 09:34:16;;;;;;;0.00;0.00;;;20.80;99.90;322.80;51312.00;;;;5074784;28;20267;-70
2022/05/04 09:45:11;;;;;;;0.00;0.00;;;21.30;99.90;323.50;51253.00;;;;5074852;28;20228;-71
2022/05/04 09:47:41;;;;;;;0.00;0.00;;;21.30;99.90;323.50;51255.00;;;;5074992;28;20201;-71
2022/05/04 09:50:12;;;;;;;0.00;0.00;;;21.30;99.90;323.60;51256.00;;;;5074472;28;20209;-71
2022/05/04 09:52:42;;;;;;;0.00;0.00;;;21.40;99.90;323.70;51240.00;;;;5074524;28;20228;-71
2022/05/04 09:55:16;;;;;;;0.00;0.00;;;21.40;99.90;323.80;51236.00;;;;5077721;28;20213;-70
2022/05/04 09:57:46;;;;;;;0.00;0.00;;;21.50;99.90;324.10;51213.00;;;;5076312;28;20192;-71
2022/05/04 10:00:17;;;;;;;0.00;0.00;;;21.60;99.90;324.10;51214.00;;;;5076952;28;20190;-71
2022/05/04 10:02:45;;;;;;;0.00;0.00;;;21.60;99.90;324.60;51186.00;;;;5073532;28;20202;-71
2022/05/04 10:05:16;;;;;;;0.00;0.00;;;21.80;99.90;324.60;51174.00;;;;5067116;28;20312;-71
2022/05/04 10:07:44;;;;;;;0.00;0.00;;;21.80;99.90;324.60;51176.00;;;;5053887;28;20606;-72
2022/05/04 10:10:15;;;;;;;0.00;0.00;;;21.80;99.90;324.80;51166.00;;;;5055427;28;20222;-71
2022/05/04 10:12:54;;;;;;;0.00;0.00;;;21.90;99.90;325.10;51144.00;;;;5066247;28;20217;-71
2022/05/04 10:15:36;;;;;;;0.00;0.00;;;22.00;99.90;325.50;51109.00;;;;5077142;28;20260;-71
2022/05/04 10:18:15;;;;;;;0.00;0.00;;;22.20;99.80;325.40;51121.00;;;;5076652;28;20271;-71
2022/05/04 10:21:16;;;;;;;0.00;0.00;;;22.20;99.40;325.40;51105.00;;;;5077513;28;20272;-71
2022/05/04 10:24:07;;;;;;;0.00;0.00;;;22.30;99.60;325.80;51087.00;;;;5079793;28;20216;-71
2022/05/04 10:32:59;;;;;;;0.00;0.00;;;22.80;98.30;327.10;50988.00;;;;5076948;28;20729;-71
2022/05/04 10:36:18;;;;;;;0.00;0.00;;;22.90;98.50;327.70;50976.00;;;;5055207;28;20309;-72
2022/05/04 10:39:02;;;;;;;0.00;0.00;;;23.10;97.90;327.60;50954.00;;;;5062157;28;20284;-71
2022/05/04 10:41:38;;;;;;;0.00;0.00;;;23.20;97.60;327.80;50935.00;;;;5071997;28;20209;-72
2022/05/04 10:44:59;;;;;;;0.00;0.00;;;23.30;98.00;328.10;50922.00;;;;5060093;28;20222;-72
2022/05/04 10:47:32;;;;;;;0.00;0.00;;;23.30;97.50;328.20;50903.00;;;;5053266;28;20195;-72
2022/05/04 10:50:12;;;;;;;0.00;0.00;;;23.40;97.40;328.80;50857.00;;;;5063647;28;20202;-72
2022/05/04 10:52:47;;;;;;;0.00;0.00;;;23.60;97.60;328.90;50851.00;;;;5075826;28;20231;-72
2022/05/04 10:55:33;;;;;;;;;;;;;;;;;;;;;
2022/05/04 10:58:49;;;;;;;0.00;0.00;;;23.80;97.20;328.70;50886.00;;;;5072067;28;20213;-72
2022/05/04 11:01:28;;;;;;;0.00;0.00;;;23.80;97.20;328.70;50872.00;;;;5074180;28;20247;-71
2022/05/04 11:04:25;;;;;;;0.00;0.00;;;23.80;96.80;328.50;50877.00;;;;5074971;28;20194;-72
2022/05/04 11:07:06;;;;;;;0.00;0.00;;;23.70;96.90;328.10;50905.00;;;;5070720;28;20221;-72
2022/05/04 11:09:38;;;;;;;0.00;0.00;;;23.60;97.30;327.80;50935.00;;;;5075750;28;20281;-71
2022/05/04 11:12:08;;;;;;;0.00;0.00;;;23.50;97.20;327.60;50945.00;;;;5073276;28;20193;-71
2022/05/04 11:14:37;;;;;;;0.00;0.00;;;23.30;97.20;327.20;50967.00;;;;5073183;28;20232;-71
2022/05/04 11:17:12;;;;;;;0.00;0.00;;;23.10;97.50;326.70;50996.00;;;;5072736;28;20573;-72
2022/05/04 11:19:45;;;;;;;0.00;0.00;;;23.00;97.60;326.30;51026.00;;;;5072688;28;20194;-72
2022/05/04 11:22:14;;;;;;;0.00;0.00;;;22.80;97.60;326.30;51023.00;;;;5073930;28;20245;-71
2022/05/04 11:25:02;;;;;;;0.00;0.00;;;22.70;97.80;326.20;51033.00;;;;5075678;28;20730;-71
2022/05/04 11:27:32;;;;;;;0.00;0.00;;;22.60;97.80;325.80;51063.00;;;;5074689;28;20202;-71
2022/05/04 11:30:03;;;;;;;0.00;0.00;;;22.50;97.70;325.50;51083.00;;;;5072760;28;20197;-71
2022/05/04 11:32:33;;;;;;;0.00;0.00;;;22.40;97.80;325.20;51102.00;;;;5071328;28;20579;-71
2022/05/04 11:35:01;;;;;;;0.00;0.00;;;22.30;98.00;325.40;51096.00;;;;5072758;28;20225;-72
2022/05/04 11:37:32;;;;;;;0.00;0.00;;;22.30;98.20;325.50;51089.00;;;;5072320;28;20576;-71
2022/05/04 11:40:14;;;;;;;0.00;0.00;;;22.20;98.20;325.50;51088.00;;;;5072625;28;20205;-71